Solana — WCY5602 — position and weather

sailwx.info

Track history (hours):
 
Tides and Currents Weather Stations Pressure Air Temp Water Temp Dewpoint Dewpoint Depression Visibility Wind Speed Wind Dir Waves Ship Positions

Solana

Owner: TAURUS MARINE, SAN FRANCISCO, CA. More information available from US FCC via Universal Licensing System and Coast Guard Vessel Documentation Center.

Last reported at 2015-Sep-02 23:33 UTC. Time now 2015-Sep-02 23:57 UTC.
Position N 47°35' W 122°27'.

Length 21 m; draft 3 m.

Type: Tug. MMSI: 366969740.

Date/timePositionNaut miles runAvg speedWind from/ knotsBaromVisibWave heightAir tempDewpointWater temp
2015-Sep-02 23:33N 47°35' W 122°27'0 6.4
2015-Sep-02 23:32N 47°35' W 122°26'4 3.3
2015-Sep-02 22:21N 47°35' W 122°21'0 0.0
2015-Sep-02 21:26N 47°35' W 122°21'0 0.0
2015-Sep-02 21:26N 47°35' W 122°21'0 0.0
2015-Sep-02 20:32N 47°35' W 122°21'0 0.0
2015-Sep-02 19:33N 47°35' W 122°21'0 0.0
2015-Sep-02 19:25N 47°35' W 122°21'0 0.0
2015-Sep-02 18:29N 47°35' W 122°21'0 0.0
2015-Sep-02 17:25N 47°35' W 122°21'0 0.0
2015-Sep-02 17:09N 47°35' W 122°21'1 2.5
2015-Sep-02 16:33N 47°36' W 122°23'1 5.2
2015-Sep-02 16:23N 47°36' W 122°24'5 5.9
2015-Sep-02 15:33N 47°34' W 122°30'0 5.7
2015-Sep-02 15:32N 47°34' W 122°30'2 1.5
2015-Sep-02 14:33N 47°35' W 122°28'0 4.9
2015-Sep-02 14:32N 47°35' W 122°28'5 5.3
2015-Sep-02 13:33N 47°40' W 122°27'0 7.1
2015-Sep-02 13:31N 47°40' W 122°26'3 3.4
2015-Sep-02 12:33N 47°39' W 122°22'0 5.2
2015-Sep-02 12:31N 47°39' W 122°21'1 0.7
2015-Sep-02 11:25N 47°39' W 122°20'0 0.0
2015-Sep-02 10:32N 47°39' W 122°20'0 0.0
2015-Sep-02 09:55N 47°39' W 122°20'0 0.0
2015-Sep-02 09:32N 47°39' W 122°20'0 0.0
2015-Sep-02 09:25N 47°39' W 122°20'0 0.0
2015-Sep-02 08:32N 47°39' W 122°20'0 0.0
2015-Sep-02 07:33N 47°39' W 122°20'0 0.0
2015-Sep-02 07:30N 47°39' W 122°20'0 0.0
2015-Sep-02 06:32N 47°39' W 122°20'0 0.0
2015-Sep-02 05:33N 47°39' W 122°20'0 0.0
2015-Sep-02 05:18N 47°39' W 122°20'0 0.0
2015-Sep-02 04:33N 47°39' W 122°20'0 0.0
2015-Sep-02 04:27N 47°39' W 122°20'0 0.0
2015-Sep-02 03:29N 47°39' W 122°20'0 0.0
2015-Sep-02 03:02N 47°39' W 122°20'0 0.0
2015-Sep-02 02:31N 47°39' W 122°20'0 0.0
2015-Sep-02 01:57N 47°39' W 122°20'0 0.0
2015-Sep-02 01:30N 47°39' W 122°20'0 0.0
2015-Sep-02 01:12N 47°39' W 122°20'0 0.0
2015-Sep-02 00:25N 47°39' W 122°20'0 0.0
2015-Sep-01 23:27N 47°39' W 122°20'0 0.0
2015-Sep-01 23:26N 47°39' W 122°20'0 0.0
2015-Sep-01 20:12N 47°39' W 122°20'0 0.1
2015-Sep-01 19:41N 47°39' W 122°20'0 0.0
2015-Sep-01 19:19N 47°39' W 122°20'0 0.0
2015-Sep-01 19:16N 47°39' W 122°20'0 0.0
2015-Sep-01 18:16N 47°39' W 122°20'0 0.1
2015-Sep-01 18:10N 47°39' W 122°20'0 0.0
2015-Sep-01 17:18N 47°39' W 122°20'0 0.0
2015-Sep-01 16:55N 47°39' W 122°20'0 0.0
2015-Sep-01 16:26N 47°39' W 122°20'0 0.0
2015-Sep-01 16:25N 47°39' W 122°20'0 0.0
2015-Sep-01 15:33N 47°39' W 122°20'0 0.0
2015-Sep-01 14:13N 47°39' W 122°20'0 0.0
2015-Sep-01 13:31N 47°39' W 122°20'0 0.0
2015-Sep-01 13:30N 47°39' W 122°20'0 0.0
2015-Sep-01 12:31N 47°39' W 122°20'0 0.0
2015-Sep-01 11:31N 47°39' W 122°20'0 0.0
2015-Sep-01 11:04N 47°39' W 122°20'0 0.0
2015-Sep-01 10:28N 47°39' W 122°20'0 0.1
2015-Sep-01 10:24N 47°39' W 122°20'0 0.0
2015-Sep-01 09:33N 47°39' W 122°20'0 0.0
2015-Sep-01 09:04N 47°39' W 122°20'0 0.0
2015-Sep-01 08:30N 47°39' W 122°20'0 0.0
2015-Sep-01 07:39N 47°39' W 122°20'0 0.0
2015-Sep-01 07:33N 47°39' W 122°20'0 0.0
2015-Sep-01 07:19N 47°39' W 122°20'0 0.0
2015-Sep-01 06:32N 47°39' W 122°20'0 0.0
2015-Sep-01 06:24N 47°39' W 122°20'0 0.0
2015-Sep-01 05:33N 47°39' W 122°20'0 0.0
2015-Sep-01 05:13N 47°39' W 122°20'0 0.0
2015-Sep-01 03:27N 47°39' W 122°20'0 0.0
2015-Sep-01 03:23N 47°39' W 122°20'0 0.0
2015-Sep-01 02:29N 47°39' W 122°20'0 0.0
2015-Sep-01 01:38N 47°39' W 122°20'0 0.0
2015-Sep-01 01:27N 47°39' W 122°20'0 0.0
2015-Sep-01 01:27N 47°39' W 122°20'0 0.0
2015-Sep-01 00:18N 47°39' W 122°20'0 0.0
2015-Sep-01 00:18N 47°39' W 122°20'0 0.0
2015-Aug-31 23:25N 47°39' W 122°20'0 0.0
2015-Aug-31 22:30N 47°39' W 122°20'0 0.0
2015-Aug-31 22:17N 47°39' W 122°20'0 0.0
2015-Aug-31 21:33N 47°39' W 122°20'0 0.0
2015-Aug-31 21:27N 47°39' W 122°20'0 0.0
2015-Aug-31 20:29N 47°39' W 122°20'0 0.0
2015-Aug-31 20:12N 47°39' W 122°20'0 0.0
2015-Aug-31 19:29N 47°39' W 122°20'0 0.0
2015-Aug-31 19:22N 47°39' W 122°20'0 0.0
2015-Aug-31 18:33N 47°39' W 122°20'0 0.0
2015-Aug-31 18:21N 47°39' W 122°20'0 0.0
2015-Aug-31 17:31N 47°39' W 122°20'0 0.0
2015-Aug-31 17:31N 47°39' W 122°20'0 0.0
2015-Aug-31 16:30N 47°39' W 122°20'0 0.0
2015-Aug-31 16:21N 47°39' W 122°20'0 0.0
2015-Aug-31 15:33N 47°39' W 122°20'0 0.0
2015-Aug-31 15:11N 47°39' W 122°20'0 0.0
2015-Aug-31 14:24N 47°39' W 122°20'0 0.0
2015-Aug-31 14:16N 47°39' W 122°20'0 0.0
2015-Aug-31 13:25N 47°39' W 122°20'0 0.0
2015-Aug-31 13:25N 47°39' W 122°20'0 0.0
2015-Aug-31 12:29N 47°39' W 122°20'0 0.0
2015-Aug-31 12:10N 47°39' W 122°20'0 0.0
2015-Aug-31 11:24N 47°39' W 122°20'0 0.0
2015-Aug-31 11:09N 47°39' W 122°20'0 0.0
2015-Aug-31 10:31N 47°39' W 122°20'0 0.0
2015-Aug-31 10:20N 47°39' W 122°20'0 0.0
2015-Aug-31 09:03N 47°39' W 122°20'0 0.0
2015-Aug-31 08:29N 47°39' W 122°20'0 0.0
2015-Aug-31 08:29N 47°39' W 122°20'0 0.0
2015-Aug-31 07:33N 47°39' W 122°20'0 0.0
2015-Aug-31 06:54N 47°39' W 122°20'0 0.0
2015-Aug-31 06:23N 47°39' W 122°20'0 0.0
2015-Aug-31 06:14N 47°39' W 122°20'0 0.0
2015-Aug-31 05:18N 47°39' W 122°20'0 0.0
2015-Aug-31 05:18N 47°39' W 122°20'0 0.0
2015-Aug-31 04:33N 47°39' W 122°20'0 0.0
2015-Aug-31 04:23N 47°39' W 122°20'0 0.0
2015-Aug-31 03:09N 47°39' W 122°20'0 0.0
2015-Aug-31 02:38N 47°39' W 122°20'0 0.0
2015-Aug-31 01:30N 47°39' W 122°20'0 0.0
2015-Aug-31 01:18N 47°39' W 122°20'0 0.0
2015-Aug-31 00:30N 47°39' W 122°20'0 0.0
2015-Aug-31 00:27N 47°39' W 122°20'0 0.0
2015-Aug-30 23:31N 47°39' W 122°20'0 0.0
2015-Aug-30 22:32N 47°39' W 122°20'0 0.0
2015-Aug-30 22:32N 47°39' W 122°20'0 0.0
2015-Aug-30 21:33N 47°39' W 122°20'0 0.0
2015-Aug-30 21:01N 47°39' W 122°20'0 0.0
2015-Aug-30 20:32N 47°39' W 122°20'0 0.0
2015-Aug-30 19:14N 47°39' W 122°20'0 0.0
2015-Aug-30 18:24N 47°39' W 122°20'0 0.0
2015-Aug-30 17:26N 47°39' W 122°20'0 0.0
2015-Aug-30 16:29N 47°39' W 122°20'0 0.0
2015-Aug-30 15:32N 47°39' W 122°20'0 0.0
2015-Aug-30 14:31N 47°39' W 122°20'0 0.0
2015-Aug-30 13:31N 47°39' W 122°20'0 0.0
2015-Aug-30 12:28N 47°39' W 122°20'0 0.0
2015-Aug-30 11:28N 47°39' W 122°20'0 0.0
2015-Aug-30 10:21N 47°39' W 122°20'0 0.0
2015-Aug-30 09:28N 47°39' W 122°20'0 0.0
2015-Aug-30 08:14N 47°39' W 122°20'0 0.0
2015-Aug-30 07:28N 47°39' W 122°20'0 0.0
2015-Aug-30 05:28N 47°39' W 122°20'0 0.0
2015-Aug-30 04:30N 47°39' W 122°20'0 0.0
2015-Aug-30 02:30N 47°39' W 122°20'0 0.0
2015-Aug-30 01:27N 47°39' W 122°20'0 0.0
2015-Aug-30 00:31N 47°39' W 122°20'0 0.0
2015-Aug-29 23:32N 47°39' W 122°20'0 0.0
2015-Aug-29 22:15N 47°39' W 122°20'0 0.0
2015-Aug-29 21:33N 47°39' W 122°20'0 0.0
2015-Aug-29 20:21N 47°39' W 122°20'0 0.0
2015-Aug-29 18:15N 47°39' W 122°20'0 0.0
2015-Aug-29 17:18N 47°39' W 122°20'0 0.0
2015-Aug-29 15:19N 47°39' W 122°20'0 0.0
2015-Aug-29 14:33N 47°39' W 122°20'0 0.0
2015-Aug-29 10:20N 47°39' W 122°20'3 3.6
2015-Aug-29 09:29N 47°39' W 122°16'4 4.2
2015-Aug-29 08:33N 47°39' W 122°21'2 2.0
2015-Aug-29 07:31N 47°40' W 122°24'3 3.3
2015-Aug-29 06:33N 47°37' W 122°27'8 8.4
2015-Aug-29 05:33N 47°29' W 122°30'9 9.0
2015-Aug-29 04:33N 47°21' W 122°33'10 9.9
2015-Aug-29 03:34N 47°11' W 122°37'3 1.2
2015-Aug-29 01:19N 47°09' W 122°38'1 0.2
2015-Aug-28 18:33N 47°10' W 122°38'8 8.1
2015-Aug-28 17:33N 47°17' W 122°33'7 6.7
2015-Aug-28 16:33N 47°24' W 122°32'7 7.3
2015-Aug-28 15:33N 47°31' W 122°29'8 8.1
2015-Aug-28 14:33N 47°39' W 122°28'3 3.1
2015-Aug-28 13:33N 47°40' W 122°24'5 4.6
2015-Aug-28 12:26N 47°39' W 122°16'2 2.7
2015-Aug-28 11:33N 47°39' W 122°20'0 0.3
2015-Aug-28 10:20N 47°39' W 122°20'0 0.0
2015-Aug-28 04:12N 47°39' W 122°20'0 0.0
2015-Aug-28 03:16N 47°39' W 122°20'0 0.0
2015-Aug-28 01:24N 47°39' W 122°20'0 0.0
2015-Aug-28 00:28N 47°39' W 122°20'0 0.0
2015-Aug-27 23:17N 47°39' W 122°20'0 0.0
2015-Aug-27 17:30N 47°39' W 122°20'0 0.0
2015-Aug-27 16:15N 47°39' W 122°20'1 0.1
2015-Aug-27 06:33N 47°39' W 122°22'4 3.6
2015-Aug-27 05:33N 47°39' W 122°27'6 6.0
2015-Aug-27 04:33N 47°34' W 122°32'3 3.1
2015-Aug-27 03:33N 47°35' W 122°28'8 8.0
2015-Aug-27 02:33N 47°43' W 122°27'8 7.9
2015-Aug-27 01:34N 47°51' W 122°24'10 8.3
2015-Aug-27 00:25N 47°60' W 122°21'11 0.8
2015-Aug-26 11:32N 48°08' W 122°32'5 4.5
2015-Aug-26 10:30N 48°05' W 122°26'5 4.9
2015-Aug-26 09:33N 48°02' W 122°22'6 6.1
2015-Aug-26 08:33N 47°56' W 122°21'6 6.2
2015-Aug-26 07:33N 47°50' W 122°24'7 6.6
2015-Aug-26 06:33N 47°44' W 122°26'6 6.2
2015-Aug-26 05:33N 47°38' W 122°29'5 4.6
2015-Aug-26 04:32N 47°33' W 122°32'3 3.2
2015-Aug-26 03:33N 47°35' W 122°28'6 5.3
2015-Aug-26 02:29N 47°40' W 122°24'3 2.8
2015-Aug-26 01:33N 47°39' W 122°20'0 0.0
2015-Aug-26 00:31N 47°39' W 122°20'0 0.0
2015-Aug-25 23:33N 47°39' W 122°20'0 0.0
2015-Aug-25 22:17N 47°39' W 122°20'0 0.0
2015-Aug-25 21:33N 47°39' W 122°20'0 0.0
2015-Aug-25 20:31N 47°39' W 122°20'0 0.0
2015-Aug-25 19:32N 47°39' W 122°20'0 0.0
2015-Aug-25 17:33N 47°39' W 122°20'0 0.0
2015-Aug-25 16:31N 47°39' W 122°20'0 0.0
2015-Aug-25 14:29N 47°39' W 122°20'0 0.0
2015-Aug-25 13:08N 47°39' W 122°20'0 0.0
2015-Aug-25 12:30N 47°39' W 122°20'0 0.0
2015-Aug-25 11:24N 47°39' W 122°20'0 0.0
2015-Aug-25 10:28N 47°39' W 122°20'0 0.0
2015-Aug-25 09:26N 47°39' W 122°20'0 0.0
2015-Aug-25 08:31N 47°39' W 122°20'0 0.0
2015-Aug-25 07:32N 47°39' W 122°20'0 0.0
2015-Aug-25 06:31N 47°39' W 122°20'0 0.0
2015-Aug-25 05:12N 47°39' W 122°20'0 0.0
2015-Aug-25 04:25N 47°39' W 122°20'0 0.0
2015-Aug-25 03:24N 47°39' W 122°20'0 0.0
2015-Aug-25 02:28N 47°39' W 122°20'0 0.0
2015-Aug-25 01:25N 47°39' W 122°20'0 0.0
2015-Aug-25 00:30N 47°39' W 122°20'0 0.0
2015-Aug-24 23:27N 47°39' W 122°20'0 0.0
2015-Aug-24 22:15N 47°39' W 122°20'0 0.0
2015-Aug-24 21:08N 47°39' W 122°20'0 0.0
2015-Aug-24 20:31N 47°39' W 122°20'0 0.0
2015-Aug-24 19:18N 47°39' W 122°20'0 0.0
2015-Aug-24 18:12N 47°39' W 122°20'0 0.0
2015-Aug-24 17:32N 47°39' W 122°20'0 0.0
2015-Aug-24 16:29N 47°39' W 122°20'0 0.0
2015-Aug-24 15:24N 47°39' W 122°20'0 0.0
2015-Aug-24 12:28N 47°39' W 122°20'0 0.0
2015-Aug-24 11:33N 47°39' W 122°20'0 0.0
2015-Aug-24 06:31N 47°39' W 122°20'0 0.0
2015-Aug-24 05:26N 47°39' W 122°20'0 0.0
2015-Aug-24 03:33N 47°39' W 122°20'0 0.0
2015-Aug-24 02:31N 47°39' W 122°20'0 0.0
2015-Aug-24 01:29N 47°39' W 122°20'0 0.0
2015-Aug-24 00:23N 47°39' W 122°20'  
Track history (hours):
 
Tides and Currents Weather Stations Pressure Air Temp Water Temp Dewpoint Dewpoint Depression Visibility Wind Speed Wind Dir Waves Ship Positions

Solana

Owner: TAURUS MARINE, SAN FRANCISCO, CA. More information available from US FCC via Universal Licensing System and Coast Guard Vessel Documentation Center.

Last reported at 2015-Sep-02 23:33 UTC. Time now 2015-Sep-02 23:57 UTC.
Position N 47°35' W 122°27'.

Length 21 m; draft 3 m.

Type: Tug. MMSI: 366969740.

Date/timePositionNaut miles runAvg speedWind from/ knotsBaromVisibWave heightAir tempDewpointWater temp
2015-Sep-02 23:33N 47°35' W 122°27'0 6.4
2015-Sep-02 23:32N 47°35' W 122°26'4 3.3
2015-Sep-02 22:21N 47°35' W 122°21'0 0.0
2015-Sep-02 21:26N 47°35' W 122°21'0 0.0
2015-Sep-02 21:26N 47°35' W 122°21'0 0.0
2015-Sep-02 20:32N 47°35' W 122°21'0 0.0
2015-Sep-02 19:33N 47°35' W 122°21'0 0.0
2015-Sep-02 19:25N 47°35' W 122°21'0 0.0
2015-Sep-02 18:29N 47°35' W 122°21'0 0.0
2015-Sep-02 17:25N 47°35' W 122°21'0 0.0
2015-Sep-02 17:09N 47°35' W 122°21'1 2.5
2015-Sep-02 16:33N 47°36' W 122°23'1 5.2
2015-Sep-02 16:23N 47°36' W 122°24'5 5.9
2015-Sep-02 15:33N 47°34' W 122°30'0 5.7
2015-Sep-02 15:32N 47°34' W 122°30'2 1.5
2015-Sep-02 14:33N 47°35' W 122°28'0 4.9
2015-Sep-02 14:32N 47°35' W 122°28'5 5.3
2015-Sep-02 13:33N 47°40' W 122°27'0 7.1
2015-Sep-02 13:31N 47°40' W 122°26'3 3.4
2015-Sep-02 12:33N 47°39' W 122°22'0 5.2
2015-Sep-02 12:31N 47°39' W 122°21'1 0.7
2015-Sep-02 11:25N 47°39' W 122°20'0 0.0
2015-Sep-02 10:32N 47°39' W 122°20'0 0.0
2015-Sep-02 09:55N 47°39' W 122°20'0 0.0
2015-Sep-02 09:32N 47°39' W 122°20'0 0.0
2015-Sep-02 09:25N 47°39' W 122°20'0 0.0
2015-Sep-02 08:32N 47°39' W 122°20'0 0.0
2015-Sep-02 07:33N 47°39' W 122°20'0 0.0
2015-Sep-02 07:30N 47°39' W 122°20'0 0.0
2015-Sep-02 06:32N 47°39' W 122°20'0 0.0
2015-Sep-02 05:33N 47°39' W 122°20'0 0.0
2015-Sep-02 05:18N 47°39' W 122°20'0 0.0
2015-Sep-02 04:33N 47°39' W 122°20'0 0.0
2015-Sep-02 04:27N 47°39' W 122°20'0 0.0
2015-Sep-02 03:29N 47°39' W 122°20'0 0.0
2015-Sep-02 03:02N 47°39' W 122°20'0 0.0
2015-Sep-02 02:31N 47°39' W 122°20'0 0.0
2015-Sep-02 01:57N 47°39' W 122°20'0 0.0
2015-Sep-02 01:30N 47°39' W 122°20'0 0.0
2015-Sep-02 01:12N 47°39' W 122°20'0 0.0
2015-Sep-02 00:25N 47°39' W 122°20'0 0.0
2015-Sep-01 23:27N 47°39' W 122°20'0 0.0
2015-Sep-01 23:26N 47°39' W 122°20'0 0.0
2015-Sep-01 20:12N 47°39' W 122°20'0 0.1
2015-Sep-01 19:41N 47°39' W 122°20'0 0.0
2015-Sep-01 19:19N 47°39' W 122°20'0 0.0
2015-Sep-01 19:16N 47°39' W 122°20'0 0.0
2015-Sep-01 18:16N 47°39' W 122°20'0 0.1
2015-Sep-01 18:10N 47°39' W 122°20'0 0.0
2015-Sep-01 17:18N 47°39' W 122°20'0 0.0
2015-Sep-01 16:55N 47°39' W 122°20'0 0.0
2015-Sep-01 16:26N 47°39' W 122°20'0 0.0
2015-Sep-01 16:25N 47°39' W 122°20'0 0.0
2015-Sep-01 15:33N 47°39' W 122°20'0 0.0
2015-Sep-01 14:13N 47°39' W 122°20'0 0.0
2015-Sep-01 13:31N 47°39' W 122°20'0 0.0
2015-Sep-01 13:30N 47°39' W 122°20'0 0.0
2015-Sep-01 12:31N 47°39' W 122°20'0 0.0
2015-Sep-01 11:31N 47°39' W 122°20'0 0.0
2015-Sep-01 11:04N 47°39' W 122°20'0 0.0
2015-Sep-01 10:28N 47°39' W 122°20'0 0.1
2015-Sep-01 10:24N 47°39' W 122°20'0 0.0
2015-Sep-01 09:33N 47°39' W 122°20'0 0.0
2015-Sep-01 09:04N 47°39' W 122°20'0 0.0
2015-Sep-01 08:30N 47°39' W 122°20'0 0.0
2015-Sep-01 07:39N 47°39' W 122°20'0 0.0
2015-Sep-01 07:33N 47°39' W 122°20'0 0.0
2015-Sep-01 07:19N 47°39' W 122°20'0 0.0
2015-Sep-01 06:32N 47°39' W 122°20'0 0.0
2015-Sep-01 06:24N 47°39' W 122°20'0 0.0
2015-Sep-01 05:33N 47°39' W 122°20'0 0.0
2015-Sep-01 05:13N 47°39' W 122°20'0 0.0
2015-Sep-01 03:27N 47°39' W 122°20'0 0.0
2015-Sep-01 03:23N 47°39' W 122°20'0 0.0
2015-Sep-01 02:29N 47°39' W 122°20'0 0.0
2015-Sep-01 01:38N 47°39' W 122°20'0 0.0
2015-Sep-01 01:27N 47°39' W 122°20'0 0.0
2015-Sep-01 01:27N 47°39' W 122°20'0 0.0
2015-Sep-01 00:18N 47°39' W 122°20'0 0.0
2015-Sep-01 00:18N 47°39' W 122°20'0 0.0
2015-Aug-31 23:25N 47°39' W 122°20'0 0.0
2015-Aug-31 22:30N 47°39' W 122°20'0 0.0
2015-Aug-31 22:17N 47°39' W 122°20'0 0.0
2015-Aug-31 21:33N 47°39' W 122°20'0 0.0
2015-Aug-31 21:27N 47°39' W 122°20'0 0.0
2015-Aug-31 20:29N 47°39' W 122°20'0 0.0
2015-Aug-31 20:12N 47°39' W 122°20'0 0.0
2015-Aug-31 19:29N 47°39' W 122°20'0 0.0
2015-Aug-31 19:22N 47°39' W 122°20'0 0.0
2015-Aug-31 18:33N 47°39' W 122°20'0 0.0
2015-Aug-31 18:21N 47°39' W 122°20'0 0.0
2015-Aug-31 17:31N 47°39' W 122°20'0 0.0
2015-Aug-31 17:31N 47°39' W 122°20'0 0.0
2015-Aug-31 16:30N 47°39' W 122°20'0 0.0
2015-Aug-31 16:21N 47°39' W 122°20'0 0.0
2015-Aug-31 15:33N 47°39' W 122°20'0 0.0
2015-Aug-31 15:11N 47°39' W 122°20'0 0.0
2015-Aug-31 14:24N 47°39' W 122°20'0 0.0
2015-Aug-31 14:16N 47°39' W 122°20'0 0.0
2015-Aug-31 13:25N 47°39' W 122°20'0 0.0
2015-Aug-31 13:25N 47°39' W 122°20'0 0.0
2015-Aug-31 12:29N 47°39' W 122°20'0 0.0
2015-Aug-31 12:10N 47°39' W 122°20'0 0.0
2015-Aug-31 11:24N 47°39' W 122°20'0 0.0
2015-Aug-31 11:09N 47°39' W 122°20'0 0.0
2015-Aug-31 10:31N 47°39' W 122°20'0 0.0
2015-Aug-31 10:20N 47°39' W 122°20'0 0.0
2015-Aug-31 09:03N 47°39' W 122°20'0 0.0
2015-Aug-31 08:29N 47°39' W 122°20'0 0.0
2015-Aug-31 08:29N 47°39' W 122°20'0 0.0
2015-Aug-31 07:33N 47°39' W 122°20'0 0.0
2015-Aug-31 06:54N 47°39' W 122°20'0 0.0
2015-Aug-31 06:23N 47°39' W 122°20'0 0.0
2015-Aug-31 06:14N 47°39' W 122°20'0 0.0
2015-Aug-31 05:18N 47°39' W 122°20'0 0.0
2015-Aug-31 05:18N 47°39' W 122°20'0 0.0
2015-Aug-31 04:33N 47°39' W 122°20'0 0.0
2015-Aug-31 04:23N 47°39' W 122°20'0 0.0
2015-Aug-31 03:09N 47°39' W 122°20'0 0.0
2015-Aug-31 02:38N 47°39' W 122°20'0 0.0
2015-Aug-31 01:30N 47°39' W 122°20'0 0.0
2015-Aug-31 01:18N 47°39' W 122°20'0 0.0
2015-Aug-31 00:30N 47°39' W 122°20'0 0.0
2015-Aug-31 00:27N 47°39' W 122°20'0 0.0
2015-Aug-30 23:31N 47°39' W 122°20'0 0.0
2015-Aug-30 22:32N 47°39' W 122°20'0 0.0
2015-Aug-30 22:32N 47°39' W 122°20'0 0.0
2015-Aug-30 21:33N 47°39' W 122°20'0 0.0
2015-Aug-30 21:01N 47°39' W 122°20'0 0.0
2015-Aug-30 20:32N 47°39' W 122°20'0 0.0
2015-Aug-30 19:14N 47°39' W 122°20'0 0.0
2015-Aug-30 18:24N 47°39' W 122°20'0 0.0
2015-Aug-30 17:26N 47°39' W 122°20'0 0.0
2015-Aug-30 16:29N 47°39' W 122°20'0 0.0
2015-Aug-30 15:32N 47°39' W 122°20'0 0.0
2015-Aug-30 14:31N 47°39' W 122°20'0 0.0
2015-Aug-30 13:31N 47°39' W 122°20'0 0.0
2015-Aug-30 12:28N 47°39' W 122°20'0 0.0
2015-Aug-30 11:28N 47°39' W 122°20'0 0.0
2015-Aug-30 10:21N 47°39' W 122°20'0 0.0
2015-Aug-30 09:28N 47°39' W 122°20'0 0.0
2015-Aug-30 08:14N 47°39' W 122°20'0 0.0
2015-Aug-30 07:28N 47°39' W 122°20'0 0.0
2015-Aug-30 05:28N 47°39' W 122°20'0 0.0
2015-Aug-30 04:30N 47°39' W 122°20'0 0.0
2015-Aug-30 02:30N 47°39' W 122°20'0 0.0
2015-Aug-30 01:27N 47°39' W 122°20'0 0.0
2015-Aug-30 00:31N 47°39' W 122°20'0 0.0
2015-Aug-29 23:32N 47°39' W 122°20'0 0.0
2015-Aug-29 22:15N 47°39' W 122°20'0 0.0
2015-Aug-29 21:33N 47°39' W 122°20'0 0.0
2015-Aug-29 20:21N 47°39' W 122°20'0 0.0
2015-Aug-29 18:15N 47°39' W 122°20'0 0.0
2015-Aug-29 17:18N 47°39' W 122°20'0 0.0
2015-Aug-29 15:19N 47°39' W 122°20'0 0.0
2015-Aug-29 14:33N 47°39' W 122°20'0 0.0
2015-Aug-29 10:20N 47°39' W 122°20'3 3.6
2015-Aug-29 09:29N 47°39' W 122°16'4 4.2
2015-Aug-29 08:33N 47°39' W 122°21'2 2.0
2015-Aug-29 07:31N 47°40' W 122°24'3 3.3
2015-Aug-29 06:33N 47°37' W 122°27'8 8.4
2015-Aug-29 05:33N 47°29' W 122°30'9 9.0
2015-Aug-29 04:33N 47°21' W 122°33'10 9.9
2015-Aug-29 03:34N 47°11' W 122°37'3 1.2
2015-Aug-29 01:19N 47°09' W 122°38'1 0.2
2015-Aug-28 18:33N 47°10' W 122°38'8 8.1
2015-Aug-28 17:33N 47°17' W 122°33'7 6.7
2015-Aug-28 16:33N 47°24' W 122°32'7 7.3
2015-Aug-28 15:33N 47°31' W 122°29'8 8.1
2015-Aug-28 14:33N 47°39' W 122°28'3 3.1
2015-Aug-28 13:33N 47°40' W 122°24'5 4.6
2015-Aug-28 12:26N 47°39' W 122°16'2 2.7
2015-Aug-28 11:33N 47°39' W 122°20'0 0.3
2015-Aug-28 10:20N 47°39' W 122°20'0 0.0
2015-Aug-28 04:12N 47°39' W 122°20'0 0.0
2015-Aug-28 03:16N 47°39' W 122°20'0 0.0
2015-Aug-28 01:24N 47°39' W 122°20'0 0.0
2015-Aug-28 00:28N 47°39' W 122°20'0 0.0
2015-Aug-27 23:17N 47°39' W 122°20'0 0.0
2015-Aug-27 17:30N 47°39' W 122°20'0 0.0
2015-Aug-27 16:15N 47°39' W 122°20'1 0.1
2015-Aug-27 06:33N 47°39' W 122°22'4 3.6
2015-Aug-27 05:33N 47°39' W 122°27'6 6.0
2015-Aug-27 04:33N 47°34' W 122°32'3 3.1
2015-Aug-27 03:33N 47°35' W 122°28'8 8.0
2015-Aug-27 02:33N 47°43' W 122°27'8 7.9
2015-Aug-27 01:34N 47°51' W 122°24'10 8.3
2015-Aug-27 00:25N 47°60' W 122°21'11 0.8
2015-Aug-26 11:32N 48°08' W 122°32'5 4.5
2015-Aug-26 10:30N 48°05' W 122°26'5 4.9
2015-Aug-26 09:33N 48°02' W 122°22'6 6.1
2015-Aug-26 08:33N 47°56' W 122°21'6 6.2
2015-Aug-26 07:33N 47°50' W 122°24'7 6.6
2015-Aug-26 06:33N 47°44' W 122°26'6 6.2
2015-Aug-26 05:33N 47°38' W 122°29'5 4.6
2015-Aug-26 04:32N 47°33' W 122°32'3 3.2
2015-Aug-26 03:33N 47°35' W 122°28'6 5.3
2015-Aug-26 02:29N 47°40' W 122°24'3 2.8
2015-Aug-26 01:33N 47°39' W 122°20'0 0.0
2015-Aug-26 00:31N 47°39' W 122°20'0 0.0
2015-Aug-25 23:33N 47°39' W 122°20'0 0.0
2015-Aug-25 22:17N 47°39' W 122°20'0 0.0
2015-Aug-25 21:33N 47°39' W 122°20'0 0.0
2015-Aug-25 20:31N 47°39' W 122°20'0 0.0
2015-Aug-25 19:32N 47°39' W 122°20'0 0.0
2015-Aug-25 17:33N 47°39' W 122°20'0 0.0
2015-Aug-25 16:31N 47°39' W 122°20'0 0.0
2015-Aug-25 14:29N 47°39' W 122°20'0 0.0
2015-Aug-25 13:08N 47°39' W 122°20'0 0.0
2015-Aug-25 12:30N 47°39' W 122°20'0 0.0
2015-Aug-25 11:24N 47°39' W 122°20'0 0.0
2015-Aug-25 10:28N 47°39' W 122°20'0 0.0
2015-Aug-25 09:26N 47°39' W 122°20'0 0.0
2015-Aug-25 08:31N 47°39' W 122°20'0 0.0
2015-Aug-25 07:32N 47°39' W 122°20'0 0.0
2015-Aug-25 06:31N 47°39' W 122°20'0 0.0
2015-Aug-25 05:12N 47°39' W 122°20'0 0.0
2015-Aug-25 04:25N 47°39' W 122°20'0 0.0
2015-Aug-25 03:24N 47°39' W 122°20'0 0.0
2015-Aug-25 02:28N 47°39' W 122°20'0 0.0
2015-Aug-25 01:25N 47°39' W 122°20'0 0.0
2015-Aug-25 00:30N 47°39' W 122°20'0 0.0
2015-Aug-24 23:27N 47°39' W 122°20'0 0.0
2015-Aug-24 22:15N 47°39' W 122°20'0 0.0
2015-Aug-24 21:08N 47°39' W 122°20'0 0.0
2015-Aug-24 20:31N 47°39' W 122°20'0 0.0
2015-Aug-24 19:18N 47°39' W 122°20'0 0.0
2015-Aug-24 18:12N 47°39' W 122°20'0 0.0
2015-Aug-24 17:32N 47°39' W 122°20'0 0.0
2015-Aug-24 16:29N 47°39' W 122°20'0 0.0
2015-Aug-24 15:24N 47°39' W 122°20'0 0.0
2015-Aug-24 12:28N 47°39' W 122°20'0 0.0
2015-Aug-24 11:33N 47°39' W 122°20'0 0.0
2015-Aug-24 06:31N 47°39' W 122°20'0 0.0
2015-Aug-24 05:26N 47°39' W 122°20'0 0.0
2015-Aug-24 03:33N 47°39' W 122°20'0 0.0
2015-Aug-24 02:31N 47°39' W 122°20'0 0.0
2015-Aug-24 01:29N 47°39' W 122°20'0 0.0
2015-Aug-24 00:23N 47°39' W 122°20'  

Dump ship's entire track history